createdAt,value
2024-02-10T00:01:25.821Z,8.80
2024-02-10T00:03:52.634Z,5.40
2024-02-10T00:06:19.266Z,6.50
2024-02-10T00:08:46.174Z,6.90
2024-02-10T00:11:13.660Z,5.70
2024-02-10T00:13:43.246Z,4.70
2024-02-10T00:16:11.799Z,4.80
2024-02-10T00:18:38.989Z,6.70
2024-02-10T00:21:06.026Z,5.80
2024-02-10T00:23:32.516Z,5.50
2024-02-10T00:25:59.224Z,7.80
2024-02-10T00:28:26.550Z,5.60
2024-02-10T00:33:22.944Z,5.10
2024-02-10T00:35:49.639Z,5.40
2024-02-10T00:38:22.239Z,5.70
2024-02-10T00:40:50.081Z,5.30
2024-02-10T00:43:16.899Z,5.40
2024-02-10T00:45:48.028Z,6.80
2024-02-10T00:48:15.072Z,4.60
2024-02-10T00:50:43.428Z,6.60
2024-02-10T00:53:10.518Z,5.10
2024-02-10T00:55:37.231Z,5.90
2024-02-10T00:58:07.341Z,4.60
2024-02-10T01:00:35.586Z,5.40
2024-02-10T01:03:03.627Z,6.60
2024-02-10T01:05:31.327Z,7.80
2024-02-10T01:08:01.500Z,5.90
2024-02-10T01:10:31.109Z,5.30
2024-02-10T01:12:58.745Z,6.40
2024-02-10T01:15:25.554Z,5.10
2024-02-10T01:17:52.109Z,5.30
2024-02-10T01:20:20.238Z,5.10
2024-02-10T01:22:46.912Z,5.80
2024-02-10T01:25:14.490Z,4.80
2024-02-10T01:27:45.827Z,5.60
2024-02-10T01:30:14.469Z,8.20
2024-02-10T01:32:43.528Z,5.30
2024-02-10T01:35:10.366Z,4.20
2024-02-10T01:37:40.147Z,2.90
2024-02-10T01:40:12.366Z,4.00
2024-02-10T01:42:40.077Z,3.80
2024-02-10T01:45:09.955Z,7.40
2024-02-10T01:47:38.118Z,5.90
2024-02-10T01:50:09.285Z,4.20
2024-02-10T01:52:39.786Z,5.70
2024-02-10T01:55:08.103Z,4.00
2024-02-10T01:57:35.057Z,5.50
2024-02-10T02:00:07.032Z,3.90
2024-02-10T02:02:34.982Z,5.70
2024-02-10T02:05:03.995Z,4.00
2024-02-10T02:07:31.982Z,4.10
2024-02-10T02:10:00.328Z,3.40
2024-02-10T02:12:27.787Z,5.40
2024-02-10T02:14:59.002Z,4.90
2024-02-10T02:17:26.561Z,5.80
2024-02-10T02:19:53.555Z,4.50
2024-02-10T02:22:20.723Z,4.90
2024-02-10T02:24:48.624Z,4.70
2024-02-10T02:27:16.282Z,4.60
2024-02-10T02:29:43.239Z,6.50
2024-02-10T02:32:11.656Z,4.20
2024-02-10T02:34:39.146Z,4.70
2024-02-10T02:37:08.321Z,4.70
2024-02-10T02:39:37.333Z,4.70
2024-02-10T02:42:06.689Z,3.90
2024-02-10T02:44:33.860Z,7.60
2024-02-10T02:47:06.979Z,5.00
2024-02-10T02:49:34.624Z,4.20
2024-02-10T02:52:01.496Z,4.90
2024-02-10T02:54:28.009Z,4.20
2024-02-10T02:57:01.649Z,3.60
2024-02-10T02:59:28.716Z,3.80
2024-02-10T03:01:56.430Z,4.50
2024-02-10T03:04:23.780Z,4.50
2024-02-10T03:06:52.281Z,4.70
2024-02-10T03:09:19.600Z,4.50
2024-02-10T03:11:46.167Z,5.40
2024-02-10T03:14:12.791Z,4.00
2024-02-10T03:16:40.764Z,4.10
2024-02-10T03:19:08.316Z,3.90
2024-02-10T03:21:37.133Z,3.40
2024-02-10T03:24:04.895Z,5.10
2024-02-10T03:26:32.985Z,3.50
2024-02-10T03:29:04.244Z,3.30
2024-02-10T03:31:31.310Z,3.90
2024-02-10T03:33:58.164Z,5.70
2024-02-10T03:36:28.586Z,4.00
2024-02-10T03:38:55.940Z,4.60
2024-02-10T03:41:22.999Z,6.30
2024-02-10T03:43:49.932Z,4.60
2024-02-10T03:46:18.463Z,4.30
2024-02-10T03:48:47.878Z,5.50
2024-02-10T03:51:14.533Z,4.30
2024-02-10T03:53:41.347Z,4.70
2024-02-10T03:56:11.903Z,5.00
2024-02-10T03:58:42.851Z,4.40
2024-02-10T04:01:15.322Z,3.80
2024-02-10T04:03:49.149Z,3.70
2024-02-10T04:06:20.494Z,5.90
2024-02-10T04:08:48.451Z,5.60
2024-02-10T04:11:17.990Z,3.00
2024-02-10T04:13:45.451Z,4.60
2024-02-10T04:16:14.164Z,5.30
2024-02-10T04:18:42.486Z,4.00
2024-02-10T04:21:10.506Z,3.80
2024-02-10T04:23:41.330Z,4.30
2024-02-10T04:26:08.363Z,3.70
2024-02-10T04:28:35.235Z,4.40
2024-02-10T04:31:01.984Z,4.40
2024-02-10T04:33:29.079Z,4.60
2024-02-10T04:38:23.426Z,5.50
2024-02-10T04:40:52.099Z,6.10
2024-02-10T04:43:19.068Z,4.80
2024-02-10T04:45:49.733Z,4.60
2024-02-10T04:48:19.973Z,4.20
2024-02-10T04:50:46.943Z,3.70
2024-02-10T04:53:16.354Z,5.40
2024-02-10T04:55:43.261Z,4.80
2024-02-10T04:58:10.056Z,6.10
2024-02-10T05:00:36.698Z,5.50
2024-02-10T05:03:04.420Z,3.80
2024-02-10T05:05:31.166Z,5.30
2024-02-10T05:07:58.593Z,4.10
2024-02-10T05:12:57.151Z,5.70
2024-02-10T05:15:26.617Z,4.20
2024-02-10T05:17:54.597Z,3.70
2024-02-10T05:20:24.376Z,4.70
2024-02-10T05:23:02.292Z,4.40
2024-02-10T05:25:36.974Z,6.20
2024-02-10T05:28:04.845Z,5.50
2024-02-10T05:30:31.362Z,5.40
2024-02-10T05:33:08.775Z,6.30
2024-02-10T05:35:35.486Z,6.50
2024-02-10T05:38:04.763Z,6.30
2024-02-10T05:40:31.853Z,4.80
2024-02-10T05:43:00.791Z,5.80
2024-02-10T05:45:29.327Z,7.10
2024-02-10T05:47:56.068Z,5.90
2024-02-10T05:50:25.714Z,5.60
2024-02-10T05:52:59.012Z,7.30
2024-02-10T05:55:27.650Z,6.20
2024-02-10T05:58:08.417Z,4.90
2024-02-10T06:00:39.929Z,5.00
2024-02-10T06:03:06.667Z,6.90
2024-02-10T06:05:33.414Z,3.50
2024-02-10T06:08:02.321Z,24.70
2024-02-10T06:10:29.114Z,3.30
2024-02-10T06:12:55.891Z,4.90
2024-02-10T06:15:25.145Z,4.00
2024-02-10T06:17:56.342Z,5.40
2024-02-10T06:20:24.804Z,7.20
2024-02-10T06:22:54.859Z,6.30
2024-02-10T06:25:29.198Z,4.40
2024-02-10T06:27:58.312Z,7.00
2024-02-10T06:30:29.009Z,8.90
2024-02-10T06:32:57.310Z,18.70
2024-02-10T06:35:24.859Z,15.20
2024-02-10T06:40:19.721Z,8.00
2024-02-10T06:42:50.294Z,10.10
2024-02-10T06:45:17.539Z,1.80
2024-02-10T06:47:46.546Z,10.50
2024-02-10T06:50:30.038Z,6.10
2024-02-10T06:53:00.906Z,3.80
2024-02-10T06:55:28.711Z,3.30
2024-02-10T06:57:59.733Z,6.10
2024-02-10T07:00:28.834Z,7.70
2024-02-10T07:02:58.750Z,11.50
2024-02-10T07:05:26.383Z,4.70
2024-02-10T07:07:54.116Z,7.40
2024-02-10T07:10:23.302Z,9.30
2024-02-10T07:12:51.404Z,4.10
2024-02-10T07:15:24.169Z,4.60
2024-02-10T07:17:53.754Z,8.20
2024-02-10T07:20:24.882Z,6.90
2024-02-10T07:22:57.590Z,8.20
2024-02-10T07:25:26.291Z,16.50
2024-02-10T07:27:53.086Z,14.50
2024-02-10T07:30:20.739Z,11.50
2024-02-10T07:32:51.706Z,14.30
2024-02-10T07:35:23.614Z,5.80
2024-02-10T07:37:53.447Z,8.10
2024-02-10T07:40:20.905Z,12.90
2024-02-10T07:42:47.822Z,8.00
2024-02-10T07:45:14.472Z,10.40
2024-02-10T07:47:41.049Z,12.60
2024-02-10T07:50:08.213Z,8.60
2024-02-10T07:52:34.799Z,8.70
2024-02-10T07:55:02.044Z,11.00
2024-02-10T07:57:30.617Z,9.30
2024-02-10T07:59:57.907Z,8.00
2024-02-10T08:02:28.543Z,6.90
2024-02-10T08:04:58.317Z,16.50
2024-02-10T08:07:31.554Z,9.10
2024-02-10T08:09:59.698Z,9.90
2024-02-10T08:12:27.878Z,14.10
2024-02-10T08:14:58.255Z,12.80
2024-02-10T08:17:27.430Z,14.20
2024-02-10T08:20:01.459Z,8.80
2024-02-10T08:22:32.408Z,13.00
2024-02-10T08:25:01.088Z,11.80
2024-02-10T08:27:29.806Z,7.60
2024-02-10T08:29:57.716Z,15.50
2024-02-10T08:32:25.909Z,18.00
2024-02-10T08:34:52.895Z,19.20
2024-02-10T08:37:20.790Z,26.50
2024-02-10T08:39:47.918Z,22.80
2024-02-10T08:42:15.688Z,20.00
2024-02-10T08:44:45.228Z,10.00
2024-02-10T08:47:11.722Z,11.20
2024-02-10T08:49:39.594Z,12.80
2024-02-10T08:52:15.491Z,12.50
2024-02-10T08:54:44.456Z,11.00
2024-02-10T08:57:11.623Z,8.20
2024-02-10T08:59:43.182Z,7.30
2024-02-10T09:02:11.397Z,11.20
2024-02-10T09:04:40.458Z,10.80
2024-02-10T09:07:08.336Z,11.40
2024-02-10T09:09:36.025Z,9.60
2024-02-10T09:12:03.169Z,8.10
2024-02-10T09:14:31.038Z,12.10
2024-02-10T09:16:58.231Z,10.10
2024-02-10T09:21:56.947Z,7.10
2024-02-10T09:24:25.236Z,6.70
2024-02-10T09:26:53.464Z,9.00
2024-02-10T09:29:20.354Z,10.30
2024-02-10T09:31:48.063Z,6.10
2024-02-10T09:34:14.704Z,13.10
2024-02-10T09:36:44.109Z,6.60
2024-02-10T09:39:14.022Z,7.90
2024-02-10T09:41:45.059Z,14.40
2024-02-10T09:44:12.817Z,6.80
2024-02-10T09:46:40.451Z,5.80
2024-02-10T09:49:09.475Z,6.80
2024-02-10T09:51:38.965Z,7.70
2024-02-10T09:54:07.040Z,7.50
2024-02-10T09:56:40.001Z,6.10
2024-02-10T09:59:13.337Z,6.40
2024-02-10T10:01:41.021Z,5.40
2024-02-10T10:04:11.507Z,7.00
2024-02-10T10:06:44.378Z,6.70
2024-02-10T10:11:41.126Z,6.40
2024-02-10T10:14:08.857Z,6.70
2024-02-10T10:16:36.314Z,7.40
2024-02-10T10:19:03.422Z,7.40
2024-02-10T10:21:31.871Z,6.50
2024-02-10T10:23:59.155Z,8.00
2024-02-10T10:26:26.809Z,6.80
2024-02-10T10:28:53.640Z,5.90
2024-02-10T10:31:23.368Z,6.70
2024-02-10T10:33:51.963Z,6.50
2024-02-10T10:36:19.021Z,6.20
2024-02-10T10:38:46.214Z,6.10
2024-02-10T10:41:23.979Z,6.60
2024-02-10T10:43:52.577Z,5.70
2024-02-10T10:46:21.031Z,9.80
2024-02-10T10:48:49.633Z,6.40
2024-02-10T10:51:18.774Z,6.00
2024-02-10T10:53:49.616Z,5.70
2024-02-10T10:56:21.005Z,8.60
2024-02-10T10:59:00.651Z,6.50
2024-02-10T11:01:29.426Z,5.90
2024-02-10T11:04:00.968Z,8.40
2024-02-10T11:06:29.591Z,6.20
2024-02-10T11:08:56.676Z,8.00
2024-02-10T11:11:23.203Z,7.30
2024-02-10T11:13:49.865Z,6.50
2024-02-10T11:16:17.137Z,7.20
2024-02-10T11:18:46.446Z,6.20
2024-02-10T11:21:20.288Z,6.20
2024-02-10T11:24:06.923Z,7.80
2024-02-10T11:26:34.940Z,6.70
2024-02-10T11:29:03.563Z,6.10
2024-02-10T11:31:30.259Z,7.70
2024-02-10T11:34:06.327Z,8.00
2024-02-10T11:36:36.164Z,5.30
2024-02-10T11:39:04.435Z,7.00
2024-02-10T11:41:37.602Z,5.50
2024-02-10T11:44:07.040Z,6.60
2024-02-10T11:46:33.707Z,4.70
2024-02-10T11:49:02.101Z,6.00
2024-02-10T11:51:30.277Z,5.60
2024-02-10T11:53:58.405Z,7.10
2024-02-10T11:56:29.803Z,6.00
2024-02-10T11:58:56.606Z,4.60
2024-02-10T12:01:24.241Z,6.10
2024-02-10T12:03:51.967Z,5.50
2024-02-10T12:06:22.193Z,5.90
2024-02-10T12:08:51.719Z,5.50
2024-02-10T12:11:18.445Z,6.80
2024-02-10T12:13:47.165Z,7.40
2024-02-10T12:16:17.160Z,7.60
2024-02-10T12:18:48.206Z,8.20
2024-02-10T12:21:20.742Z,7.70
2024-02-10T12:23:48.759Z,7.60
2024-02-10T12:26:16.834Z,8.40
2024-02-10T12:28:43.632Z,6.50
2024-02-10T12:31:10.576Z,9.30
2024-02-10T12:33:37.137Z,6.00
2024-02-10T12:36:03.988Z,7.70
2024-02-10T12:38:31.571Z,7.50
2024-02-10T12:40:58.244Z,6.50
2024-02-10T12:43:26.088Z,6.40
2024-02-10T12:45:53.390Z,6.70
2024-02-10T12:48:21.124Z,7.60
2024-02-10T12:50:51.976Z,8.10
2024-02-10T12:53:19.391Z,5.70
2024-02-10T12:55:47.484Z,8.20
2024-02-10T12:58:14.486Z,8.50
2024-02-10T13:00:41.759Z,6.40
2024-02-10T13:03:09.517Z,5.10
2024-02-10T13:05:36.261Z,7.60
2024-02-10T13:08:03.139Z,7.00
2024-02-10T13:10:30.364Z,7.60
2024-02-10T13:13:02.941Z,9.90
2024-02-10T13:15:30.097Z,6.00
2024-02-10T13:17:58.679Z,6.70
2024-02-10T13:20:27.433Z,8.20
2024-02-10T13:22:55.974Z,9.30
2024-02-10T13:25:23.392Z,6.20
2024-02-10T13:27:53.497Z,7.30
2024-02-10T13:30:21.611Z,7.90
2024-02-10T13:32:48.263Z,9.00
2024-02-10T13:35:19.702Z,10.30
2024-02-10T13:38:07.508Z,6.90
2024-02-10T13:40:56.111Z,6.70
2024-02-10T13:43:42.890Z,5.80
2024-02-10T13:46:28.557Z,6.00
2024-02-10T13:49:13.738Z,7.70
2024-02-10T13:51:59.036Z,8.00
2024-02-10T13:54:44.251Z,6.50
2024-02-10T13:57:29.689Z,7.60
2024-02-10T13:59:56.166Z,7.60
2024-02-10T14:02:22.801Z,6.10
2024-02-10T14:04:50.242Z,8.70
2024-02-10T14:07:32.690Z,7.70
2024-02-10T14:10:16.391Z,7.90
2024-02-10T14:12:51.841Z,8.60
2024-02-10T14:15:21.846Z,5.50
2024-02-10T14:17:51.652Z,5.20
2024-02-10T14:20:23.585Z,7.60
2024-02-10T14:22:56.497Z,4.80
2024-02-10T14:25:34.025Z,5.30
2024-02-10T14:28:16.650Z,7.60
2024-02-10T14:30:48.909Z,6.20
2024-02-10T14:33:17.475Z,8.20
2024-02-10T14:36:15.484Z,6.60
2024-02-10T14:38:50.038Z,6.80
2024-02-10T14:41:16.568Z,8.90
2024-02-10T14:43:45.134Z,7.30
2024-02-10T14:46:14.628Z,9.40
2024-02-10T14:48:42.704Z,7.30
2024-02-10T14:51:13.325Z,8.70
2024-02-10T14:53:40.956Z,9.10
2024-02-10T14:56:13.933Z,6.60
2024-02-10T14:58:44.769Z,8.00
2024-02-10T15:01:12.309Z,9.30
2024-02-10T15:03:39.917Z,7.90
2024-02-10T15:06:20.805Z,7.20
2024-02-10T15:08:54.588Z,7.50
2024-02-10T15:11:23.001Z,7.80
2024-02-10T15:13:49.551Z,8.00
2024-02-10T15:16:23.321Z,9.70
2024-02-10T15:18:53.579Z,7.20
2024-02-10T15:21:21.533Z,8.10
2024-02-10T15:23:49.437Z,9.50
2024-02-10T15:26:18.023Z,8.40
2024-02-10T15:28:46.978Z,8.30
2024-02-10T15:31:19.953Z,9.40
2024-02-10T15:33:58.239Z,7.10
2024-02-10T15:36:31.999Z,8.80
2024-02-10T15:39:02.437Z,9.40
2024-02-10T15:41:29.524Z,8.50
2024-02-10T15:43:56.834Z,9.50
2024-02-10T15:46:24.127Z,6.70
2024-02-10T15:48:55.369Z,7.30
2024-02-10T15:51:22.934Z,8.70
2024-02-10T15:53:49.805Z,11.40
2024-02-10T15:56:16.386Z,9.60
2024-02-10T15:58:44.630Z,7.20
2024-02-10T16:01:21.108Z,9.20
2024-02-10T16:03:47.691Z,11.90
2024-02-10T16:06:14.443Z,8.40
2024-02-10T16:08:45.751Z,10.20
2024-02-10T16:11:13.308Z,10.00
2024-02-10T16:13:41.061Z,8.50
2024-02-10T16:16:09.092Z,9.00
2024-02-10T16:18:36.507Z,11.70
2024-02-10T16:21:03.102Z,11.50
2024-02-10T16:23:29.601Z,10.50
2024-02-10T16:25:58.352Z,9.80
2024-02-10T16:28:25.298Z,8.60
2024-02-10T16:30:51.851Z,8.70
2024-02-10T16:33:18.447Z,6.50
2024-02-10T16:35:46.646Z,11.60
2024-02-10T16:38:14.043Z,9.20
2024-02-10T16:40:41.928Z,7.60
2024-02-10T16:43:09.335Z,9.90
2024-02-10T16:45:36.927Z,8.60
2024-02-10T16:48:04.684Z,10.10
2024-02-10T16:50:32.392Z,11.20
2024-02-10T16:53:06.695Z,9.80
2024-02-10T16:55:38.437Z,8.30
2024-02-10T16:58:09.663Z,9.10
2024-02-10T17:00:38.586Z,10.70
2024-02-10T17:03:08.068Z,9.80
2024-02-10T17:05:37.957Z,10.50
2024-02-10T17:08:05.566Z,10.00
2024-02-10T17:10:39.206Z,8.70
2024-02-10T17:13:11.099Z,9.70
2024-02-10T17:15:39.483Z,10.00
2024-02-10T17:18:15.044Z,9.30
2024-02-10T17:20:48.343Z,10.80
2024-02-10T17:23:21.053Z,8.10
2024-02-10T17:25:48.392Z,11.60
2024-02-10T17:30:41.883Z,8.90
2024-02-10T17:33:08.869Z,9.30
2024-02-10T17:35:35.470Z,8.70
2024-02-10T17:38:03.432Z,9.10
2024-02-10T17:40:32.263Z,11.80
2024-02-10T17:43:03.808Z,8.50
2024-02-10T17:45:34.234Z,9.60
2024-02-10T17:48:01.913Z,13.70
2024-02-10T17:50:31.156Z,11.70
2024-02-10T17:53:06.068Z,14.30
2024-02-10T17:55:39.635Z,9.90
2024-02-10T17:58:17.313Z,10.00
2024-02-10T18:00:44.410Z,11.30
2024-02-10T18:03:14.529Z,10.10
2024-02-10T18:05:41.786Z,11.70
2024-02-10T18:10:35.292Z,7.60
2024-02-10T18:13:01.871Z,11.30
2024-02-10T18:15:28.490Z,8.40
2024-02-10T18:17:56.449Z,11.20
2024-02-10T18:20:23.721Z,9.70
2024-02-10T18:25:19.350Z,8.40
2024-02-10T18:30:19.928Z,18.40
2024-02-10T18:32:49.405Z,21.80
2024-02-10T18:35:24.959Z,26.50
2024-02-10T18:37:52.476Z,26.00
2024-02-10T18:40:19.380Z,22.50
2024-02-10T18:42:49.030Z,18.50
2024-02-10T18:45:17.249Z,18.00
2024-02-10T18:47:44.251Z,10.70
2024-02-10T18:50:11.866Z,16.60
2024-02-10T18:52:40.553Z,13.60
2024-02-10T18:55:10.804Z,14.40
2024-02-10T18:57:39.226Z,13.40
2024-02-10T19:00:09.432Z,12.20
2024-02-10T19:02:36.757Z,14.90
2024-02-10T19:07:30.710Z,10.80
2024-02-10T19:09:57.205Z,12.20
2024-02-10T19:12:23.724Z,14.40
2024-02-10T19:14:50.247Z,14.00
2024-02-10T19:17:19.222Z,15.80
2024-02-10T19:19:46.000Z,14.60
2024-02-10T19:22:12.979Z,15.60
2024-02-10T19:24:42.068Z,11.00
2024-02-10T19:27:11.519Z,12.00
2024-02-10T19:29:39.262Z,12.10
2024-02-10T19:32:08.693Z,12.70
2024-02-10T19:34:41.502Z,12.40
2024-02-10T19:37:08.979Z,10.80
2024-02-10T19:42:01.970Z,10.10
2024-02-10T19:44:29.357Z,15.20
2024-02-10T19:49:24.554Z,10.40
2024-02-10T19:51:51.474Z,9.40
2024-02-10T19:54:20.903Z,9.70
2024-02-10T19:56:50.316Z,8.80
2024-02-10T19:59:17.121Z,11.80
2024-02-10T20:01:45.693Z,10.70
2024-02-10T20:04:13.427Z,8.90
2024-02-10T20:06:42.710Z,10.50
2024-02-10T20:09:09.841Z,9.00
2024-02-10T20:11:37.814Z,9.20
2024-02-10T20:14:07.509Z,7.00
2024-02-10T20:16:34.436Z,11.10
2024-02-10T20:19:05.350Z,8.00
2024-02-10T20:21:33.018Z,10.40
2024-02-10T20:23:59.611Z,11.20
2024-02-10T20:26:26.806Z,9.90
2024-02-10T20:28:56.057Z,12.00
2024-02-10T20:31:22.938Z,9.60
2024-02-10T20:33:54.232Z,10.00
2024-02-10T20:36:28.171Z,12.10
2024-02-10T20:38:56.161Z,9.70
2024-02-10T20:41:23.900Z,10.40
2024-02-10T20:43:50.522Z,11.30
2024-02-10T20:46:17.126Z,12.40
2024-02-10T20:48:44.687Z,9.30
2024-02-10T20:51:11.904Z,13.70
2024-02-10T20:53:42.257Z,10.70
2024-02-10T20:56:13.905Z,12.40
2024-02-10T20:58:42.995Z,11.90
2024-02-10T21:01:14.214Z,10.10
2024-02-10T21:03:40.776Z,12.00
2024-02-10T21:06:08.184Z,13.70
2024-02-10T21:11:06.651Z,10.70
2024-02-10T21:13:33.294Z,14.20
2024-02-10T21:16:00.141Z,13.10
2024-02-10T21:18:26.930Z,14.20
2024-02-10T21:20:55.320Z,12.90
2024-02-10T21:23:25.943Z,13.80
2024-02-10T21:25:52.735Z,14.20
2024-02-10T21:28:19.249Z,13.50
2024-02-10T21:30:47.527Z,12.80
2024-02-10T21:33:14.359Z,11.20
2024-02-10T21:35:41.379Z,13.20
2024-02-10T21:38:08.905Z,12.70
2024-02-10T21:40:35.512Z,10.40
2024-02-10T21:43:02.191Z,12.10
2024-02-10T21:45:30.354Z,11.70
2024-02-10T21:47:56.910Z,9.80
2024-02-10T21:50:24.853Z,10.20
2024-02-10T21:52:51.551Z,8.50
2024-02-10T21:55:18.357Z,9.00
2024-02-10T21:57:44.940Z,8.90
2024-02-10T22:00:20.518Z,9.70
2024-02-10T22:02:51.757Z,11.20
2024-02-10T22:05:20.807Z,11.70
2024-02-10T22:07:48.350Z,13.40
2024-02-10T22:10:15.237Z,12.80
2024-02-10T22:12:44.792Z,13.70
2024-02-10T22:15:13.514Z,11.90
2024-02-10T22:17:40.385Z,10.20
2024-02-10T22:20:08.720Z,9.90
2024-02-10T22:22:35.475Z,9.90
2024-02-10T22:25:05.572Z,11.20
2024-02-10T22:27:33.680Z,9.20
2024-02-10T22:30:00.300Z,16.60
2024-02-10T22:32:29.414Z,13.50
2024-02-10T22:34:58.188Z,7.70
2024-02-10T22:37:26.093Z,8.40
2024-02-10T22:39:56.165Z,9.60
2024-02-10T22:42:25.067Z,9.50
2024-02-10T22:44:53.068Z,10.00
2024-02-10T22:47:20.890Z,12.80
2024-02-10T22:49:49.078Z,11.60
2024-02-10T22:52:23.246Z,8.90
2024-02-10T22:54:54.602Z,8.40
2024-02-10T22:57:21.364Z,9.50
2024-02-10T22:59:52.058Z,9.70
2024-02-10T23:02:18.871Z,9.30
2024-02-10T23:04:47.558Z,8.80
2024-02-10T23:07:15.693Z,11.30
2024-02-10T23:09:44.667Z,11.10
2024-02-10T23:12:14.413Z,8.70
2024-02-10T23:14:47.092Z,12.70
2024-02-10T23:17:14.406Z,8.40
2024-02-10T23:19:44.177Z,11.60
2024-02-10T23:22:11.158Z,10.70
2024-02-10T23:24:39.305Z,10.60
2024-02-10T23:27:06.030Z,11.60
2024-02-10T23:29:32.577Z,11.60
2024-02-10T23:32:02.725Z,12.80
2024-02-10T23:34:31.042Z,11.90
2024-02-10T23:37:03.819Z,13.10
2024-02-10T23:39:34.696Z,12.70
2024-02-10T23:42:08.596Z,11.80
2024-02-10T23:44:37.075Z,14.30
2024-02-10T23:47:03.844Z,12.90
2024-02-10T23:49:32.965Z,9.80
2024-02-10T23:52:00.689Z,9.60
2024-02-10T23:56:55.334Z,12.40
2024-02-10T23:59:21.808Z,12.40
